Time;durP1;ratioP1;P1;durP2;ratioP2;P2;SDS_P1;SDS_P2;PMS_P1;PMS_P2;Temp;Humidity;BMP_temperature;BMP_pressure;BME280_temperature;BME280_humidity;BME280_pressure;Samples;Min_cycle;Max_cycle;Signal;HPM_P1;HPM_P2
2023/02/23 00:00:26;;;;;;;28.83;10.70;;;;;;;;;;1030740;28;20049;-26
2023/02/23 00:00:57;;;;;;;36.00;12.18;;;;;;;;;;1029937;28;20027;-27
2023/02/23 00:01:28;;;;;;;23.88;9.98;;;;;;;;;;1030127;28;20109;-27
2023/02/23 00:02:04;;;;;;;24.38;10.70;;;;;;;;;;1029733;28;20026;-27
2023/02/23 00:02:35;;;;;;;32.95;8.68;;;;;;;;;;1029591;28;20070;-26
2023/02/23 00:03:05;;;;;;;21.83;8.13;;;;;;;;;;1030047;28;20561;-27
2023/02/23 00:03:35;;;;;;;24.23;10.00;;;;;;;;;;1029718;28;20042;-26
2023/02/23 00:04:06;;;;;;;27.52;10.13;;;;;;;;;;1029970;28;20411;-27
2023/02/23 00:04:37;;;;;;;20.98;9.15;;;;;;;;;;1029558;28;20031;-27
2023/02/23 00:05:08;;;;;;;24.40;9.02;;;;;;;;;;1029265;28;20478;-27
2023/02/23 00:05:38;;;;;;;30.63;10.77;;;;;;;;;;1029461;28;20438;-26
2023/02/23 00:06:09;;;;;;;33.90;11.35;;;;;;;;;;1030050;28;20053;-28
2023/02/23 00:06:39;;;;;;;25.75;8.57;;;;;;;;;;1030073;28;20497;-27
2023/02/23 00:07:09;;;;;;;41.97;11.13;;;;;;;;;;1029884;28;20023;-27
2023/02/23 00:07:44;;;;;;;34.00;11.50;;;;;;;;;;1029759;28;20033;-27
2023/02/23 00:08:14;;;;;;;25.98;8.70;;;;;;;;;;1029566;28;20019;-28
2023/02/23 00:08:46;;;;;;;24.48;9.27;;;;;;;;;;1029859;28;20034;-27
2023/02/23 00:09:23;;;;;;;39.75;10.98;;;;;;;;;;1029752;28;20446;-27
2023/02/23 00:09:53;;;;;;;23.00;9.52;;;;;;;;;;1028579;28;20405;-26
2023/02/23 00:10:29;;;;;;;33.13;11.90;;;;;;;;;;1029831;28;20030;-27
2023/02/23 00:10:59;;;;;;;25.98;9.85;;;;;;;;;;1029928;28;20553;-28
2023/02/23 00:11:32;;;;;;;39.72;10.80;;;;;;;;;;1029627;28;20095;-26
2023/02/23 00:12:06;;;;;;;31.48;11.40;;;;;;;;;;1029973;28;20026;-26
2023/02/23 00:12:37;;;;;;;23.40;8.75;;;;;;;;;;1028856;28;20011;-26
2023/02/23 00:13:09;;;;;;;20.77;6.78;;;;;;;;;;1029962;28;20031;-27
2023/02/23 00:13:41;;;;;;;31.52;12.27;;;;;;;;;;1029600;28;20517;-28
2023/02/23 00:14:11;;;;;;;24.55;9.70;;;;;;;;;;1029947;28;20026;-27
2023/02/23 00:14:42;;;;;;;22.10;10.50;;;;;;;;;;1029748;28;20030;-27
2023/02/23 00:15:14;;;;;;;35.78;10.73;;;;;;;;;;1029894;28;20066;-27
2023/02/23 00:15:44;;;;;;;18.00;8.05;;;;;;;;;;1029886;28;20079;-27
2023/02/23 00:16:16;;;;;;;19.63;5.43;;;;;;;;;;1029779;28;20441;-27
2023/02/23 00:16:47;;;;;;;30.98;9.77;;;;;;;;;;1029924;28;20487;-26
2023/02/23 00:17:17;;;;;;;12.50;6.50;;;;;;;;;;1028255;28;20023;-27
2023/02/23 00:17:48;;;;;;;21.88;8.65;;;;;;;;;;1029691;28;20190;-27
2023/02/23 00:18:19;;;;;;;20.63;6.45;;;;;;;;;;1029719;28;20074;-27
2023/02/23 00:18:54;;;;;;;26.35;10.63;;;;;;;;;;1029839;28;20079;-27
2023/02/23 00:19:25;;;;;;;30.20;9.82;;;;;;;;;;1029601;28;20026;-27
2023/02/23 00:19:56;;;;;;;24.77;7.80;;;;;;;;;;1029955;28;20057;-27
2023/02/23 00:20:26;;;;;;;29.83;8.57;;;;;;;;;;1029717;28;20393;-28
2023/02/23 00:20:57;;;;;;;27.90;9.20;;;;;;;;;;1029850;28;20085;-27
2023/02/23 00:21:31;;;;;;;23.92;8.65;;;;;;;;;;1030869;28;20117;-27
2023/02/23 00:22:02;;;;;;;18.33;8.82;;;;;;;;;;1029749;28;20098;-27
2023/02/23 00:22:33;;;;;;;22.45;7.40;;;;;;;;;;1029709;28;20128;-28
2023/02/23 00:23:04;;;;;;;21.85;5.93;;;;;;;;;;1029835;28;20613;-27
2023/02/23 00:23:37;;;;;;;20.02;6.80;;;;;;;;;;1029681;28;20218;-28
2023/02/23 00:24:09;;;;;;;25.38;6.50;;;;;;;;;;1029327;28;20027;-27
2023/02/23 00:24:41;;;;;;;11.18;5.72;;;;;;;;;;1029621;28;20038;-26
2023/02/23 00:25:11;;;;;;;17.67;6.25;;;;;;;;;;1029323;28;20041;-27
2023/02/23 00:25:44;;;;;;;14.57;7.18;;;;;;;;;;1029736;28;20053;-27
2023/02/23 00:26:14;;;;;;;28.15;4.88;;;;;;;;;;1029591;28;20027;-26
2023/02/23 00:26:46;;;;;;;15.80;4.43;;;;;;;;;;1029843;28;20054;-27
2023/02/23 00:27:19;;;;;;;15.07;4.25;;;;;;;;;;1029848;28;20031;-28
2023/02/23 00:27:51;;;;;;;15.27;3.78;;;;;;;;;;1029743;28;20026;-27
2023/02/23 00:28:21;;;;;;;9.63;3.72;;;;;;;;;;1029591;28;20029;-28
2023/02/23 00:28:52;;;;;;;20.40;5.07;;;;;;;;;;1030046;28;20033;-27
2023/02/23 00:29:26;;;;;;;13.02;5.75;;;;;;;;;;1029749;28;20557;-28
2023/02/23 00:29:56;;;;;;;10.27;4.40;;;;;;;;;;1029770;28;20073;-27
2023/02/23 00:30:27;;;;;;;8.07;3.65;;;;;;;;;;1029616;28;20026;-29
2023/02/23 00:31:00;;;;;;;12.32;5.03;;;;;;;;;;1029660;28;20605;-26
2023/02/23 00:31:30;;;;;;;19.02;5.05;;;;;;;;;;1029087;28;20434;-27
2023/02/23 00:32:01;;;;;;;18.85;4.55;;;;;;;;;;1029557;28;20015;-27
2023/02/23 00:32:31;;;;;;;9.40;5.40;;;;;;;;;;1029333;28;20479;-27
2023/02/23 00:33:02;;;;;;;10.95;3.22;;;;;;;;;;1029668;28;20460;-27
2023/02/23 00:33:33;;;;;;;5.72;4.25;;;;;;;;;;1029236;28;20058;-26
2023/02/23 00:34:04;;;;;;;12.48;5.25;;;;;;;;;;1029976;28;20496;-27
2023/02/23 00:34:35;;;;;;;20.67;5.82;;;;;;;;;;1029601;28;20149;-28
2023/02/23 00:35:15;;;;;;;19.98;5.50;;;;;;;;;;1029838;28;20094;-27
2023/02/23 00:35:46;;;;;;;8.43;4.05;;;;;;;;;;1028065;28;20500;-27
2023/02/23 00:36:16;;;;;;;14.00;6.63;;;;;;;;;;1027348;28;20057;-27
2023/02/23 00:36:53;;;;;;;11.05;5.47;;;;;;;;;;1027915;28;20041;-28
2023/02/23 00:37:23;;;;;;;15.77;5.63;;;;;;;;;;1027705;28;20158;-27
2023/02/23 00:37:53;;;;;;;20.48;6.25;;;;;;;;;;1029502;28;20082;-26
2023/02/23 00:38:24;;;;;;;19.83;6.00;;;;;;;;;;1029719;28;20110;-27
2023/02/23 00:38:56;;;;;;;9.55;5.28;;;;;;;;;;1029726;28;20513;-26
2023/02/23 00:39:27;;;;;;;31.60;5.60;;;;;;;;;;1029640;28;20065;-28
2023/02/23 00:39:58;;;;;;;20.58;6.93;;;;;;;;;;1029677;28;20029;-27
2023/02/23 00:40:28;;;;;;;22.77;5.85;;;;;;;;;;1029171;28;20027;-27
2023/02/23 00:40:59;;;;;;;23.95;3.90;;;;;;;;;;1029829;28;20530;-27
2023/02/23 00:41:30;;;;;;;6.05;4.15;;;;;;;;;;1029649;28;20042;-27
2023/02/23 00:42:02;;;;;;;18.48;4.93;;;;;;;;;;1029828;28;20019;-27
2023/02/23 00:42:32;;;;;;;28.17;7.63;;;;;;;;;;1029486;28;20031;-27
2023/02/23 00:43:03;;;;;;;19.85;5.90;;;;;;;;;;1029712;28;20457;-27
2023/02/23 00:43:34;;;;;;;23.05;4.93;;;;;;;;;;1029651;28;20027;-26
2023/02/23 00:44:05;;;;;;;12.98;6.10;;;;;;;;;;1029729;28;20121;-27
2023/02/23 00:44:39;;;;;;;19.88;8.90;;;;;;;;;;1029592;28;20030;-27
2023/02/23 00:45:11;;;;;;;8.90;5.28;;;;;;;;;;1029665;28;20506;-26
2023/02/23 00:45:41;;;;;;;23.90;7.20;;;;;;;;;;1029547;28;20037;-28
2023/02/23 00:46:16;;;;;;;14.90;5.55;;;;;;;;;;1029844;28;20018;-26
2023/02/23 00:46:50;;;;;;;11.35;5.55;;;;;;;;;;1029833;28;20034;-27
2023/02/23 00:47:21;;;;;;;12.60;6.15;;;;;;;;;;1029563;28;20078;-27
2023/02/23 00:47:51;;;;;;;14.73;5.90;;;;;;;;;;1029668;28;20054;-27
2023/02/23 00:48:21;;;;;;;18.63;5.53;;;;;;;;;;1029748;28;20022;-25
2023/02/23 00:48:54;;;;;;;13.50;6.60;;;;;;;;;;1029767;28;20046;-27
2023/02/23 00:49:24;;;;;;;21.65;7.80;;;;;;;;;;1029689;28;20082;-28
2023/02/23 00:49:56;;;;;;;12.85;4.88;;;;;;;;;;1029803;28;20077;-28
2023/02/23 00:50:28;;;;;;;16.67;5.63;;;;;;;;;;1029520;28;20014;-28
2023/02/23 00:51:02;;;;;;;17.00;6.25;;;;;;;;;;1029738;28;20081;-28
2023/02/23 00:51:33;;;;;;;36.25;7.35;;;;;;;;;;1030120;28;20078;-27
2023/02/23 00:52:04;;;;;;;9.68;5.63;;;;;;;;;;1029651;28;20034;-28
2023/02/23 00:52:34;;;;;;;13.00;6.00;;;;;;;;;;1029547;28;20049;-28
2023/02/23 00:53:04;;;;;;;23.77;6.97;;;;;;;;;;1029736;28;20022;-27
2023/02/23 00:53:35;;;;;;;21.80;6.40;;;;;;;;;;1029454;28;20080;-27
2023/02/23 00:54:06;;;;;;;20.17;6.72;;;;;;;;;;1029975;28;20089;-27
2023/02/23 00:54:36;;;;;;;9.10;4.07;;;;;;;;;;1029423;28;20030;-26
2023/02/23 00:55:08;;;;;;;11.88;5.07;;;;;;;;;;1029690;28;20019;-27
2023/02/23 00:55:39;;;;;;;8.88;5.30;;;;;;;;;;1029569;28;20459;-27
2023/02/23 00:56:11;;;;;;;12.63;5.95;;;;;;;;;;1029808;28;20084;-27
2023/02/23 00:56:42;;;;;;;7.22;4.28;;;;;;;;;;1029407;28;20022;-26
2023/02/23 00:57:12;;;;;;;29.67;8.82;;;;;;;;;;1029880;28;20117;-27
2023/02/23 00:57:43;;;;;;;16.52;6.40;;;;;;;;;;1029600;28;20030;-26
2023/02/23 00:58:13;;;;;;;14.95;5.57;;;;;;;;;;1029633;28;20027;-28
2023/02/23 00:58:44;;;;;;;10.88;5.75;;;;;;;;;;1029677;28;20470;-26
2023/02/23 00:59:14;;;;;;;23.13;7.10;;;;;;;;;;1029686;28;20422;-28
2023/02/23 00:59:45;;;;;;;14.77;5.47;;;;;;;;;;1029620;28;20363;-27
2023/02/23 01:00:19;;;;;;;17.52;6.65;;;;;;;;;;1029412;28;20045;-26
2023/02/23 01:00:49;;;;;;;9.77;6.15;;;;;;;;;;1029717;28;20094;-28
2023/02/23 01:01:20;;;;;;;29.25;6.40;;;;;;;;;;1029523;28;20478;-27
2023/02/23 01:01:51;;;;;;;9.50;4.63;;;;;;;;;;1029572;28;20574;-27
2023/02/23 01:02:21;;;;;;;21.45;6.50;;;;;;;;;;1029507;28;20019;-27
2023/02/23 01:02:52;;;;;;;9.77;5.03;;;;;;;;;;1029864;28;20014;-27
2023/02/23 01:03:22;;;;;;;22.00;7.65;;;;;;;;;;1029497;28;20026;-27
2023/02/23 01:03:53;;;;;;;10.55;6.07;;;;;;;;;;1029757;28;20477;-27
2023/02/23 01:04:23;;;;;;;10.07;5.72;;;;;;;;;;1029539;28;20109;-27
2023/02/23 01:04:54;;;;;;;15.48;5.07;;;;;;;;;;1029676;28;20026;-26
2023/02/23 01:05:24;;;;;;;15.88;7.35;;;;;;;;;;1029652;28;20031;-28
2023/02/23 01:05:58;;;;;;;17.67;6.72;;;;;;;;;;1029632;28;20110;-27
2023/02/23 01:06:29;;;;;;;18.73;7.18;;;;;;;;;;1029971;28;20546;-27
2023/02/23 01:07:02;;;;;;;17.83;5.97;;;;;;;;;;1029567;28;20034;-26
2023/02/23 01:07:33;;;;;;;12.13;5.18;;;;;;;;;;1029432;28;20117;-27
2023/02/23 01:08:08;;;;;;;7.45;4.32;;;;;;;;;;1029709;28;20026;-27
2023/02/23 01:08:39;;;;;;;8.52;5.28;;;;;;;;;;1029399;28;20041;-26
2023/02/23 01:09:15;;;;;;;37.47;6.20;;;;;;;;;;1029781;28;20066;-27
2023/02/23 01:09:46;;;;;;;23.65;6.45;;;;;;;;;;1029521;28;20038;-27
2023/02/23 01:10:19;;;;;;;17.75;6.85;;;;;;;;;;1029445;28;20057;-28
2023/02/23 01:10:52;;;;;;;40.47;8.90;;;;;;;;;;1029633;28;20037;-27
2023/02/23 01:11:26;;;;;;;15.80;6.10;;;;;;;;;;1028959;28;20050;-27
2023/02/23 01:12:00;;;;;;;13.40;6.57;;;;;;;;;;1029461;28;20044;-27
2023/02/23 01:12:30;;;;;;;23.25;8.82;;;;;;;;;;1029467;28;20027;-26
2023/02/23 01:13:01;;;;;;;21.63;9.18;;;;;;;;;;1029791;28;20030;-27
2023/02/23 01:13:32;;;;;;;13.90;6.97;;;;;;;;;;1029352;28;20030;-28
2023/02/23 01:14:02;;;;;;;23.00;8.30;;;;;;;;;;1029745;28;20019;-28
2023/02/23 01:14:34;;;;;;;10.40;7.03;;;;;;;;;;1029466;28;20031;-27
2023/02/23 01:15:07;;;;;;;22.52;7.22;;;;;;;;;;1028723;28;20501;-26
2023/02/23 01:15:42;;;;;;;23.00;5.50;;;;;;;;;;1029465;28;20471;-27
2023/02/23 01:16:14;;;;;;;44.25;8.35;;;;;;;;;;1029590;28;20028;-28
2023/02/23 01:16:44;;;;;;;26.30;6.70;;;;;;;;;;1029511;28;20034;-28
2023/02/23 01:17:16;;;;;;;13.32;6.75;;;;;;;;;;1027900;28;20122;-26
2023/02/23 01:17:47;;;;;;;28.42;8.38;;;;;;;;;;1029562;28;20094;-27
2023/02/23 01:18:18;;;;;;;21.60;6.70;;;;;;;;;;1029415;28;20141;-27
2023/02/23 01:18:49;;;;;;;11.95;5.45;;;;;;;;;;1029627;28;20031;-26
2023/02/23 01:19:19;;;;;;;19.88;9.18;;;;;;;;;;1029663;28;20762;-27
2023/02/23 01:19:50;;;;;;;12.75;4.18;;;;;;;;;;1029588;28;20121;-27
2023/02/23 01:20:20;;;;;;;14.45;5.10;;;;;;;;;;1029418;28;20022;-28
2023/02/23 01:20:51;;;;;;;15.80;8.13;;;;;;;;;;1029768;28;20430;-26
2023/02/23 01:21:26;;;;;;;14.85;8.18;;;;;;;;;;1029777;28;20093;-27
2023/02/23 01:21:57;;;;;;;21.88;6.93;;;;;;;;;;1029330;28;20430;-27
2023/02/23 01:22:27;;;;;;;15.50;5.82;;;;;;;;;;1029523;28;20038;-27
2023/02/23 01:22:57;;;;;;;13.05;5.82;;;;;;;;;;1029666;28;20023;-27
2023/02/23 01:23:28;;;;;;;22.88;7.25;;;;;;;;;;1028942;28;20471;-28
2023/02/23 01:23:59;;;;;;;23.65;7.72;;;;;;;;;;1029275;28;20026;-27
2023/02/23 01:24:29;;;;;;;15.32;6.03;;;;;;;;;;1029427;28;20034;-27
2023/02/23 01:25:00;;;;;;;17.80;6.45;;;;;;;;;;1028345;28;20027;-27
2023/02/23 01:25:31;;;;;;;11.95;5.30;;;;;;;;;;1029464;28;20390;-27
2023/02/23 01:26:02;;;;;;;16.85;6.15;;;;;;;;;;1029825;28;20026;-26
2023/02/23 01:26:33;;;;;;;26.30;6.95;;;;;;;;;;1029414;28;20522;-24
2023/02/23 01:27:04;;;;;;;16.23;6.68;;;;;;;;;;1029596;28;20538;-27
2023/02/23 01:27:34;;;;;;;12.93;6.78;;;;;;;;;;1029480;28;20026;-27
2023/02/23 01:28:05;;;;;;;20.00;7.57;;;;;;;;;;1028470;28;20014;-27
2023/02/23 01:28:35;;;;;;;37.67;6.90;;;;;;;;;;1028289;28;20058;-27
2023/02/23 01:29:07;;;;;;;37.95;6.95;;;;;;;;;;1029858;28;20039;-28
2023/02/23 01:29:38;;;;;;;15.93;5.88;;;;;;;;;;1029273;28;20061;-26
2023/02/23 01:30:09;;;;;;;24.83;6.80;;;;;;;;;;1029577;28;20074;-25
2023/02/23 01:30:39;;;;;;;13.30;4.55;;;;;;;;;;1029294;28;20109;-28
2023/02/23 01:31:10;;;;;;;25.70;7.53;;;;;;;;;;1029639;28;20026;-27
2023/02/23 01:31:42;;;;;;;20.90;8.18;;;;;;;;;;1029165;28;20026;-26
2023/02/23 01:32:12;;;;;;;21.08;6.47;;;;;;;;;;1029660;28;20483;-25
2023/02/23 01:32:43;;;;;;;29.63;7.47;;;;;;;;;;1029329;28;20441;-27
2023/02/23 01:33:13;;;;;;;12.32;6.13;;;;;;;;;;1029580;28;20097;-26
2023/02/23 01:33:44;;;;;;;32.00;5.63;;;;;;;;;;1029294;28;20046;-27
2023/02/23 01:34:15;;;;;;;16.00;5.95;;;;;;;;;;1029342;28;20033;-28
2023/02/23 01:34:46;;;;;;;19.17;5.93;;;;;;;;;;1029604;28;20292;-27
2023/02/23 01:35:16;;;;;;;16.67;6.78;;;;;;;;;;1029330;28;20065;-28
2023/02/23 01:35:56;;;;;;;31.48;7.75;;;;;;;;;;1029445;28;20037;-28
2023/02/23 01:36:27;;;;;;;28.67;6.00;;;;;;;;;;1030208;28;20026;-28
2023/02/23 01:36:58;;;;;;;18.42;6.15;;;;;;;;;;1029571;28;20040;-26
2023/02/23 01:37:29;;;;;;;20.63;6.35;;;;;;;;;;1028896;28;20485;-27
2023/02/23 01:37:59;;;;;;;25.20;7.70;;;;;;;;;;1029497;28;20026;-27
2023/02/23 01:38:30;;;;;;;18.92;6.97;;;;;;;;;;1029352;28;20037;-27
2023/02/23 01:39:00;;;;;;;17.17;7.38;;;;;;;;;;1029774;28;20029;-27
2023/02/23 01:39:31;;;;;;;19.15;8.35;;;;;;;;;;1029369;28;20038;-27
2023/02/23 01:40:14;;;;;;;39.90;7.57;;;;;;;;;;1029629;28;20031;-27
2023/02/23 01:40:46;;;;;;;16.77;6.43;;;;;;;;;;1029430;28;20023;-28
2023/02/23 01:41:16;;;;;;;21.75;8.38;;;;;;;;;;1029634;28;20034;-27
2023/02/23 01:41:47;;;;;;;52.78;21.50;;;;;;;;;;1029478;28;20399;-28
2023/02/23 01:42:18;;;;;;;48.65;22.63;;;;;;;;;;1029307;28;20050;-27
2023/02/23 01:42:48;;;;;;;88.72;33.53;;;;;;;;;;1029413;28;20490;-26
2023/02/23 01:43:24;;;;;;;73.57;25.33;;;;;;;;;;1025058;28;20035;-25
2023/02/23 01:44:00;;;;;;;62.78;18.88;;;;;;;;;;1024424;28;20447;-28
2023/02/23 01:44:31;;;;;;;25.65;13.30;;;;;;;;;;1024492;28;20022;-28
2023/02/23 01:45:27;;;;;;;33.45;15.75;;;;;;;;;;1026942;28;20471;-28
2023/02/23 01:45:58;;;;;;;31.23;9.82;;;;;;;;;;1025751;28;20055;-27
2023/02/23 01:46:33;;;;;;;27.35;12.43;;;;;;;;;;1029263;28;20046;-27
2023/02/23 01:47:03;;;;;;;22.52;8.25;;;;;;;;;;1029916;28;20076;-28
2023/02/23 01:47:34;;;;;;;24.77;10.75;;;;;;;;;;1029114;28;20080;-27
2023/02/23 01:48:06;;;;;;;44.13;13.23;;;;;;;;;;1027307;28;20113;-28
2023/02/23 01:48:38;;;;;;;31.30;10.13;;;;;;;;;;1020071;29;20072;-27
2023/02/23 01:49:16;;;;;;;16.88;7.65;;;;;;;;;;1021406;29;20122;-26
2023/02/23 01:49:47;;;;;;;42.35;16.33;;;;;;;;;;1021676;28;20403;-28
2023/02/23 01:50:18;;;;;;;33.58;12.18;;;;;;;;;;1026471;28;20023;-26
2023/02/23 01:51:12;;;;;;;42.63;14.23;;;;;;;;;;1029058;28;20540;-28
2023/02/23 01:51:47;;;;;;;28.60;11.32;;;;;;;;;;1028868;28;20022;-28
2023/02/23 01:52:18;;;;;;;46.40;13.15;;;;;;;;;;1029417;28;20109;-27
2023/02/23 01:52:50;;;;;;;31.05;12.02;;;;;;;;;;1029290;28;20026;-29
2023/02/23 01:53:21;;;;;;;28.52;12.55;;;;;;;;;;1028519;28;20029;-27
2023/02/23 01:53:58;;;;;;;36.50;13.07;;;;;;;;;;1029440;28;20492;-27
2023/02/23 01:54:30;;;;;;;23.52;10.15;;;;;;;;;;1028802;28;20029;-27
2023/02/23 01:55:01;;;;;;;28.05;12.55;;;;;;;;;;1029451;28;20026;-26
2023/02/23 01:55:31;;;;;;;25.77;10.55;;;;;;;;;;1027990;28;20022;-27
2023/02/23 01:56:10;;;;;;;34.55;12.02;;;;;;;;;;1027577;28;20451;-27
2023/02/23 01:56:42;;;;;;;27.88;9.43;;;;;;;;;;1028513;28;20030;-28
2023/02/23 01:57:13;;;;;;;23.73;10.50;;;;;;;;;;1029455;28;20073;-27
2023/02/23 01:57:44;;;;;;;34.67;11.20;;;;;;;;;;1029345;28;20029;-28
2023/02/23 01:58:18;;;;;;;21.02;9.80;;;;;;;;;;1029171;28;20022;-27
2023/02/23 01:58:53;;;;;;;27.08;8.82;;;;;;;;;;1029663;28;20415;-27
2023/02/23 01:59:38;;;;;;;26.10;10.63;;;;;;;;;;1029333;28;20034;-27
2023/02/23 02:00:12;;;;;;;19.10;8.88;;;;;;;;;;1028748;28;20027;-28
2023/02/23 02:00:45;;;;;;;24.77;8.63;;;;;;;;;;1029423;28;20471;-27
2023/02/23 02:01:16;;;;;;;16.08;8.40;;;;;;;;;;1029485;28;20019;-27
2023/02/23 02:01:47;;;;;;;31.40;10.13;;;;;;;;;;1029398;28;20050;-27
2023/02/23 02:02:19;;;;;;;16.23;10.75;;;;;;;;;;1029243;28;20091;-27
2023/02/23 02:02:49;;;;;;;28.08;11.45;;;;;;;;;;1029613;28;20441;-27
2023/02/23 02:03:35;;;;;;;22.42;8.95;;;;;;;;;;1029516;28;20033;-27
2023/02/23 02:04:05;;;;;;;27.90;9.20;;;;;;;;;;1029621;28;20426;-27
2023/02/23 02:04:43;;;;;;;24.15;9.73;;;;;;;;;;1029196;28;20027;-27
2023/02/23 02:05:14;;;;;;;31.25;12.35;;;;;;;;;;1029756;28;20169;-26
2023/02/23 02:05:47;;;;;;;22.70;8.43;;;;;;;;;;1030277;28;20130;-28
2023/02/23 02:06:18;;;;;;;28.98;11.93;;;;;;;;;;1030519;28;20027;-28
2023/02/23 02:06:52;;;;;;;35.80;10.55;;;;;;;;;;1029213;28;20026;-27
2023/02/23 02:07:24;;;;;;;36.72;11.00;;;;;;;;;;1029475;28;20034;-28
2023/02/23 02:07:57;;;;;;;33.35;11.50;;;;;;;;;;1029461;28;20644;-27
2023/02/23 02:08:32;;;;;;;21.60;8.25;;;;;;;;;;1029247;28;20031;-27
2023/02/23 02:09:05;;;;;;;30.88;11.70;;;;;;;;;;1029532;28;20033;-28
2023/02/23 02:09:37;;;;;;;18.70;9.02;;;;;;;;;;1028188;28;20105;-28
2023/02/23 02:10:45;;;;;;;25.45;10.18;;;;;;;;;;1029384;28;20026;-26
2023/02/23 02:11:35;;;;;;;31.33;9.98;;;;;;;;;;1029442;28;20026;-27
2023/02/23 02:12:09;;;;;;;23.23;9.88;;;;;;;;;;1026283;28;20031;-28
2023/02/23 02:12:44;;;;;;;21.95;9.93;;;;;;;;;;1027006;28;20042;-26
2023/02/23 02:13:19;;;;;;;29.67;10.65;;;;;;;;;;1026232;28;20431;-27
2023/02/23 02:13:51;;;;;;;23.90;11.32;;;;;;;;;;1028482;28;20022;-27
2023/02/23 02:14:21;;;;;;;26.65;9.23;;;;;;;;;;1028275;28;20385;-26
2023/02/23 02:14:54;;;;;;;31.85;10.32;;;;;;;;;;1029638;28;20058;-26
2023/02/23 02:15:28;;;;;;;29.25;10.27;;;;;;;;;;1029298;28;20033;-27
2023/02/23 02:15:58;;;;;;;32.47;12.60;;;;;;;;;;1029543;28;20487;-27
2023/02/23 02:16:41;;;;;;;31.25;9.55;;;;;;;;;;1029310;28;20065;-28
2023/02/23 02:17:19;;;;;;;24.70;9.30;;;;;;;;;;1025485;28;20079;-28
2023/02/23 02:18:02;;;;;;;31.27;8.10;;;;;;;;;;1025045;28;20034;-27
2023/02/23 02:18:45;;;;;;;26.77;8.63;;;;;;;;;;1024997;28;20155;-28
2023/02/23 02:19:26;;;;;;;17.50;7.38;;;;;;;;;;1029351;28;20037;-26
2023/02/23 02:19:57;;;;;;;29.67;9.25;;;;;;;;;;1029450;28;20058;-26
2023/02/23 02:20:49;;;;;;;20.73;9.88;;;;;;;;;;1029045;28;20028;-27
2023/02/23 02:21:29;;;;;;;15.52;8.23;;;;;;;;;;1030201;28;20072;-26
2023/02/23 02:22:14;;;;;;;30.75;6.70;;;;;;;;;;1029491;28;20479;-27
2023/02/23 02:22:54;;;;;;;16.80;8.82;;;;;;;;;;1029490;28;20497;-26
2023/02/23 02:23:35;;;;;;;17.75;10.38;;;;;;;;;;1029443;28;20034;-26
2023/02/23 02:24:24;;;;;;;21.85;9.07;;;;;;;;;;1029579;28;20035;-27
2023/02/23 02:24:54;;;;;;;21.13;8.98;;;;;;;;;;1029152;28;20022;-26
2023/02/23 02:25:33;;;;;;;30.85;9.20;;;;;;;;;;1029409;28;20030;-26
2023/02/23 02:26:08;;;;;;;20.20;9.98;;;;;;;;;;1029569;28;20033;-26
2023/02/23 02:26:51;;;;;;;34.72;9.27;;;;;;;;;;1028706;28;20054;-28
2023/02/23 02:27:33;;;;;;;25.85;10.57;;;;;;;;;;1028573;28;20466;-27
2023/02/23 02:28:21;;;;;;;22.45;8.13;;;;;;;;;;1029619;28;20447;-28
2023/02/23 02:29:11;;;;;;;32.75;9.98;;;;;;;;;;1030283;28;20026;-27
2023/02/23 02:29:41;;;;;;;11.63;5.55;;;;;;;;;;1029722;28;20032;-26
2023/02/23 02:30:14;;;;;;;53.45;11.18;;;;;;;;;;1030113;28;20022;-27
2023/02/23 02:31:03;;;;;;;23.48;9.10;;;;;;;;;;1029817;28;20538;-27
2023/02/23 02:31:48;;;;;;;22.70;8.98;;;;;;;;;;1029871;28;20027;-26
2023/02/23 02:32:38;;;;;;;19.08;7.00;;;;;;;;;;1029959;28;20502;-28
2023/02/23 02:33:10;;;;;;;21.58;9.50;;;;;;;;;;1029762;28;20039;-26
2023/02/23 02:33:44;;;;;;;27.60;6.95;;;;;;;;;;1029987;28;20712;-27
2023/02/23 02:34:33;;;;;;;16.60;7.25;;;;;;;;;;1029375;28;20106;-27
2023/02/23 02:35:17;;;;;;;27.92;7.25;;;;;;;;;;1030290;28;20030;-27
2023/02/23 02:35:57;;;;;;;21.40;9.00;;;;;;;;;;1030283;28;20030;-28
2023/02/23 02:36:36;;;;;;;16.25;8.25;;;;;;;;;;1029798;28;20033;-27
2023/02/23 02:37:25;;;;;;;23.65;10.43;;;;;;;;;;1030444;28;20030;-27
2023/02/23 02:38:00;;;;;;;37.97;13.93;;;;;;;;;;1029866;28;20022;-27
2023/02/23 02:38:41;;;;;;;33.20;12.52;;;;;;;;;;1029809;28;20042;-27
2023/02/23 02:39:43;;;;;;;36.80;12.60;;;;;;;;;;1030260;28;20605;-27
2023/02/23 02:40:20;;;;;;;27.42;13.40;;;;;;;;;;1030291;28;20023;-28
2023/02/23 02:40:53;;;;;;;35.67;12.48;;;;;;;;;;1029946;28;20165;-28
2023/02/23 02:41:33;;;;;;;30.60;11.30;;;;;;;;;;1030092;28;20500;-28
2023/02/23 02:42:22;;;;;;;24.85;10.95;;;;;;;;;;1030203;28;20030;-27
2023/02/23 02:42:55;;;;;;;27.13;8.90;;;;;;;;;;1030261;28;20082;-28
2023/02/23 02:43:26;;;;;;;17.08;10.27;;;;;;;;;;1030139;28;20464;-27
2023/02/23 02:43:59;;;;;;;26.60;11.05;;;;;;;;;;1030063;28;20018;-27
2023/02/23 02:44:50;;;;;;;25.38;11.93;;;;;;;;;;1029680;28;20022;-27
2023/02/23 02:45:34;;;;;;;32.67;11.98;;;;;;;;;;1028406;28;20379;-27
2023/02/23 02:46:10;;;;;;;25.58;10.93;;;;;;;;;;1030301;28;20037;-27
2023/02/23 02:46:46;;;;;;;36.08;12.02;;;;;;;;;;1030074;28;20053;-27
2023/02/23 02:47:29;;;;;;;30.35;11.70;;;;;;;;;;1030115;28;20026;-27
2023/02/23 02:48:05;;;;;;;33.08;10.15;;;;;;;;;;1029968;28;20042;-27
2023/02/23 02:48:42;;;;;;;20.52;9.65;;;;;;;;;;1029858;28;20022;-27
2023/02/23 02:49:20;;;;;;;28.40;11.85;;;;;;;;;;1030300;28;20022;-27
2023/02/23 02:49:53;;;;;;;32.03;11.00;;;;;;;;;;1029843;28;20505;-27
2023/02/23 02:50:49;;;;;;;37.33;12.18;;;;;;;;;;1030073;28;20121;-28
2023/02/23 02:51:27;;;;;;;29.55;12.05;;;;;;;;;;1020181;28;20549;-28
2023/02/23 02:52:01;;;;;;;42.95;12.05;;;;;;;;;;1030006;28;20030;-26
2023/02/23 02:52:39;;;;;;;33.42;11.43;;;;;;;;;;1029894;28;20565;-27
2023/02/23 02:53:12;;;;;;;32.65;11.93;;;;;;;;;;1029651;28;20022;-27
2023/02/23 02:53:47;;;;;;;18.25;11.27;;;;;;;;;;1029944;28;20089;-27
2023/02/23 02:54:18;;;;;;;46.75;10.63;;;;;;;;;;1029945;28;20536;-27
2023/02/23 02:54:52;;;;;;;34.33;13.35;;;;;;;;;;1030116;28;20036;-28
2023/02/23 02:55:25;;;;;;;27.85;11.25;;;;;;;;;;1029940;28;20070;-27
2023/02/23 02:55:58;;;;;;;24.02;11.23;;;;;;;;;;1030080;28;20049;-27
2023/02/23 02:56:29;;;;;;;32.13;11.30;;;;;;;;;;1030024;28;20078;-28
2023/02/23 02:57:03;;;;;;;16.08;10.00;;;;;;;;;;1029999;28;20582;-28
2023/02/23 02:57:34;;;;;;;40.88;10.18;;;;;;;;;;1029908;28;20074;-26
2023/02/23 02:58:10;;;;;;;23.50;12.50;;;;;;;;;;1030030;28;20112;-27
2023/02/23 02:58:42;;;;;;;32.85;12.38;;;;;;;;;;1029910;28;20084;-26
2023/02/23 04:17:33;;;;;;;31.02;6.05;;;;;;;;;;1029652;28;20030;-29
2023/02/23 04:18:05;;;;;;;26.40;5.03;;;;;;;;;;1029923;28;20058;-29
2023/02/23 04:18:36;;;;;;;7.28;3.97;;;;;;;;;;1029690;28;20026;-29
2023/02/23 04:19:07;;;;;;;13.82;5.40;;;;;;;;;;1029922;28;20022;-30
2023/02/23 04:19:37;;;;;;;17.92;5.65;;;;;;;;;;1029666;28;20503;-30
2023/02/23 04:20:10;;;;;;;5.97;3.00;;;;;;;;;;1029846;28;20029;-30
2023/02/23 04:20:40;;;;;;;29.17;4.68;;;;;;;;;;1029565;28;20124;-29
2023/02/23 04:21:11;;;;;;;8.48;3.42;;;;;;;;;;1029940;28;20026;-30
2023/02/23 04:21:41;;;;;;;15.43;4.38;;;;;;;;;;1028664;28;20523;-29
2023/02/23 04:22:12;;;;;;;23.75;5.07;;;;;;;;;;1030065;28;20010;-29
2023/02/23 04:22:42;;;;;;;9.52;5.28;;;;;;;;;;1029670;28;20493;-29
2023/02/23 04:23:13;;;;;;;10.80;5.15;;;;;;;;;;1029929;28;20433;-29
2023/02/23 04:23:43;;;;;;;5.95;3.38;;;;;;;;;;1029353;28;20430;-31
2023/02/23 04:24:14;;;;;;;22.73;5.60;;;;;;;;;;1029897;28;20030;-29
2023/02/23 04:24:47;;;;;;;15.07;4.55;;;;;;;;;;1029720;28;20034;-30
2023/02/23 04:25:21;;;;;;;9.93;3.05;;;;;;;;;;1029277;28;20022;-29
2023/02/23 04:25:52;;;;;;;17.20;4.40;;;;;;;;;;1029664;28;20038;-30
2023/02/23 04:26:22;;;;;;;7.47;4.10;;;;;;;;;;1029643;28;20031;-29
2023/02/23 04:26:53;;;;;;;11.68;3.92;;;;;;;;;;1029952;28;20030;-30
2023/02/23 04:27:23;;;;;;;7.80;2.85;;;;;;;;;;1029611;28;20019;-30
2023/02/23 04:27:54;;;;;;;10.13;4.60;;;;;;;;;;1029713;28;20027;-29
2023/02/23 04:28:25;;;;;;;23.33;4.75;;;;;;;;;;1029750;28;20030;-30
2023/02/23 04:28:56;;;;;;;10.25;3.88;;;;;;;;;;1029743;28;20514;-30
2023/02/23 04:29:26;;;;;;;9.90;4.78;;;;;;;;;;1029783;28;20038;-30
2023/02/23 04:29:57;;;;;;;9.23;3.00;;;;;;;;;;1029952;28;20389;-30
2023/02/23 04:30:28;;;;;;;7.75;3.17;;;;;;;;;;1029629;28;20040;-30
2023/02/23 04:30:59;;;;;;;10.23;4.65;;;;;;;;;;1029888;28;20087;-29
2023/02/23 04:31:29;;;;;;;17.10;5.57;;;;;;;;;;1029623;28;20091;-30
2023/02/23 04:32:00;;;;;;;15.98;4.78;;;;;;;;;;1029684;28;20360;-30
2023/02/23 04:32:31;;;;;;;23.88;5.30;;;;;;;;;;1029587;28;20110;-29
2023/02/23 04:33:01;;;;;;;28.52;4.63;;;;;;;;;;1029753;28;20022;-30
2023/02/23 04:33:31;;;;;;;18.17;4.20;;;;;;;;;;1029759;28;20023;-30
2023/02/23 04:34:03;;;;;;;16.88;4.70;;;;;;;;;;1029870;28;20145;-30
2023/02/23 04:34:34;;;;;;;11.05;4.38;;;;;;;;;;1029645;28;20057;-30
2023/02/23 04:35:04;;;;;;;13.93;4.35;;;;;;;;;;1029787;28;20022;-30
2023/02/23 04:35:35;;;;;;;9.63;4.50;;;;;;;;;;1029572;28;20477;-29